Time;durP1;ratioP1;P1;durP2;ratioP2;P2;SDS_P1;SDS_P2;PMS_P1;PMS_P2;Temp;Humidity;BMP_temperature;BMP_pressure;BME280_temperature;BME280_humidity;BME280_pressure;Samples;Min_cycle;Max_cycle;Signal;HPM_P1;HPM_P2
2021/07/14 00:01:13;;;;;;;5.27;4.60;;;15.50;97.40;;;;;;5053747;28;21342;-78
2021/07/14 00:03:39;;;;;;;7.30;4.57;;;15.50;96.90;;;;;;5053182;28;20463;-78
2021/07/14 00:06:07;;;;;;;6.13;4.20;;;15.40;98.80;;;;;;5048815;28;20495;-78
2021/07/14 00:08:34;;;;;;;6.30;5.53;;;15.40;99.80;;;;;;5048717;28;20446;-79
2021/07/14 00:11:01;;;;;;;8.07;4.77;;;15.30;99.90;;;;;;5048672;28;21037;-78
2021/07/14 00:13:32;;;;;;;4.40;4.00;;;15.30;99.90;;;;;;5044111;28;20505;-78
2021/07/14 00:24:13;;;;;;;5.10;4.57;;;15.40;99.90;;;;;;5048770;28;20475;-79
2021/07/14 00:26:40;;;;;;;4.77;4.37;;;15.40;99.90;;;;;;5054859;28;20496;-78
2021/07/14 00:29:11;;;;;;;5.40;4.70;;;15.40;99.90;;;;;;5051729;28;20953;-78
2021/07/14 00:31:41;;;;;;;4.80;4.40;;;15.40;99.50;;;;;;5051732;28;20450;-79
2021/07/14 00:34:08;;;;;;;4.73;4.30;;;15.50;96.60;;;;;;5049398;28;20440;-79
2021/07/14 00:36:35;;;;;;;5.63;4.83;;;15.40;97.60;;;;;;5053670;28;20521;-78
2021/07/14 00:39:02;;;;;;;6.80;4.53;;;15.50;97.80;;;;;;5054642;28;20464;-78
2021/07/14 00:41:29;;;;;;;6.47;4.80;;;15.50;98.30;;;;;;5055836;28;20454;-78
2021/07/14 00:43:56;;;;;;;8.13;4.50;;;15.50;98.40;;;;;;5056329;28;20449;-78
2021/07/14 00:46:25;;;;;;;6.20;5.00;;;15.50;99.20;;;;;;5054507;28;20890;-78
2021/07/14 00:48:56;;;;;;;6.00;5.37;;;15.50;97.20;;;;;;5048071;28;20441;-78
2021/07/14 00:51:22;;;;;;;4.73;4.33;;;15.40;97.80;;;;;;5050486;28;20540;-79
2021/07/14 00:53:51;;;;;;;5.33;4.83;;;15.30;99.40;;;;;;5047447;28;20526;-78
2021/07/14 00:56:17;;;;;;;5.20;4.77;;;15.10;99.30;;;;;;5052707;28;20533;-78
2021/07/14 00:58:44;;;;;;;5.10;4.70;;;14.90;99.90;;;;;;5046792;28;20506;-79
2021/07/14 01:01:11;;;;;;;6.27;5.70;;;14.70;99.90;;;;;;5047864;28;20465;-78
2021/07/14 01:03:46;;;;;;;6.60;6.00;;;14.60;99.90;;;;;;5041936;28;20479;-79
2021/07/14 01:06:25;;;;;;;6.47;5.87;;;14.60;99.90;;;;;;5048506;28;20822;-78
2021/07/14 01:09:00;;;;;;;7.13;6.53;;;14.50;99.90;;;;;;5057343;28;20842;-79
2021/07/14 01:11:31;;;;;;;7.47;6.87;;;14.40;99.90;;;;;;5053643;28;20452;-80
2021/07/14 01:14:05;;;;;;;7.07;6.47;;;14.40;99.90;;;;;;5047590;28;20445;-79
2021/07/14 01:16:36;;;;;;;7.07;6.43;;;14.50;99.90;;;;;;5043413;28;20565;-78
2021/07/14 01:19:16;;;;;;;7.50;6.80;;;14.50;99.90;;;;;;5056694;28;20537;-78
2021/07/14 01:21:47;;;;;;;6.73;5.90;;;14.40;99.90;;;;;;5047647;28;20895;-79
2021/07/14 01:24:21;;;;;;;7.10;6.33;;;14.40;99.90;;;;;;5048140;28;21103;-78
2021/07/14 01:27:10;;;;;;;7.87;7.07;;;14.50;99.90;;;;;;5041105;28;20627;-79
2021/07/14 01:29:44;;;;;;;7.70;6.70;;;14.60;99.90;;;;;;5046683;28;20473;-78
2021/07/14 01:32:13;;;;;;;11.70;6.70;;;14.50;99.90;;;;;;5051399;28;21263;-79
2021/07/14 01:34:45;;;;;;;9.07;7.83;;;14.50;99.90;;;;;;5050718;28;20452;-78
2021/07/14 01:37:17;;;;;;;10.80;7.23;;;14.50;99.90;;;;;;5061194;28;20517;-79
2021/07/14 01:39:46;;;;;;;7.63;6.93;;;14.50;99.90;;;;;;5049183;28;20489;-81
2021/07/14 01:42:15;;;;;;;7.83;7.13;;;14.60;99.90;;;;;;5053995;28;20572;-79
2021/07/14 01:44:45;;;;;;;9.90;6.53;;;14.60;99.90;;;;;;5046962;28;21010;-80
2021/07/14 01:47:12;;;;;;;7.33;6.73;;;14.70;99.90;;;;;;5045322;28;20451;-80
2021/07/14 01:49:42;;;;;;;7.10;6.50;;;14.80;99.90;;;;;;5054720;28;20635;-80
2021/07/14 01:52:13;;;;;;;6.17;5.67;;;14.90;99.90;;;;;;5047139;28;20446;-79
2021/07/14 01:54:42;;;;;;;6.70;6.20;;;15.00;99.90;;;;;;5050429;28;20474;-79
2021/07/14 01:57:11;;;;;;;6.80;6.13;;;15.00;99.90;;;;;;5048635;28;20439;-79
2021/07/14 01:59:41;;;;;;;5.90;5.40;;;15.00;99.90;;;;;;5050878;28;20456;-79
2021/07/14 02:02:10;;;;;;;6.80;6.27;;;15.10;99.90;;;;;;5048381;28;20447;-79
2021/07/14 02:04:40;;;;;;;6.33;5.83;;;15.10;99.90;;;;;;5048925;28;20542;-79
2021/07/14 02:07:10;;;;;;;7.30;5.77;;;15.30;99.90;;;;;;5046837;28;20798;-79
2021/07/14 02:09:39;;;;;;;5.40;5.00;;;15.30;99.90;;;;;;5048508;28;20442;-79
2021/07/14 02:12:09;;;;;;;6.37;5.77;;;15.30;99.90;;;;;;5052092;28;20511;-79
2021/07/14 02:14:44;;;;;;;6.27;5.67;;;15.30;99.90;;;;;;5056965;28;20491;-79
2021/07/14 02:17:14;;;;;;;6.30;5.80;;;15.30;99.90;;;;;;5067037;28;20462;-79
2021/07/14 02:19:47;;;;;;;8.20;6.60;;;15.30;99.90;;;;;;5069595;28;20511;-79
2021/07/14 02:22:14;;;;;;;6.87;6.17;;;15.30;99.90;;;;;;5055815;28;20463;-79
2021/07/14 02:24:41;;;;;;;9.13;5.23;;;15.30;99.90;;;;;;5051805;28;20515;-79
2021/07/14 02:27:10;;;;;;;6.40;5.77;;;15.30;99.90;;;;;;5041956;28;20537;-80
2021/07/14 02:29:38;;;;;;;5.73;5.13;;;15.30;99.90;;;;;;5044702;28;20452;-79
2021/07/14 02:32:09;;;;;;;5.73;5.20;;;15.30;99.90;;;;;;5044823;28;20949;-79
2021/07/14 02:34:36;;;;;;;5.00;4.50;;;15.30;99.90;;;;;;5053555;28;21190;-80
2021/07/14 02:37:07;;;;;;;5.07;4.67;;;15.20;99.90;;;;;;5043622;28;20505;-79
2021/07/14 02:39:38;;;;;;;5.30;4.80;;;15.30;99.90;;;;;;5050963;28;20461;-79
2021/07/14 02:42:11;;;;;;;5.03;4.63;;;15.20;99.90;;;;;;5054906;28;20460;-79
2021/07/14 02:44:42;;;;;;;5.20;4.67;;;15.20;99.90;;;;;;5055543;28;20501;-79
2021/07/14 02:47:11;;;;;;;4.70;4.30;;;15.20;99.90;;;;;;5047112;28;20445;-79
2021/07/14 02:49:41;;;;;;;4.90;4.50;;;15.20;99.90;;;;;;5049536;28;20528;-79
2021/07/14 02:52:11;;;;;;;5.00;4.60;;;15.30;99.90;;;;;;5047655;28;20511;-79
2021/07/14 02:54:40;;;;;;;4.70;4.40;;;15.30;99.90;;;;;;5052859;28;20451;-80
2021/07/14 02:57:11;;;;;;;5.00;4.60;;;15.30;99.90;;;;;;5045207;28;20528;-79
2021/07/14 02:59:41;;;;;;;5.33;4.67;;;15.30;99.90;;;;;;5044553;28;20456;-80
2021/07/14 03:02:11;;;;;;;6.83;5.70;;;15.20;99.90;;;;;;5044128;28;20999;-80
2021/07/14 03:04:41;;;;;;;6.10;5.17;;;15.30;99.90;;;;;;5048470;28;20509;-80
2021/07/14 03:07:09;;;;;;;5.50;4.47;;;15.30;99.90;;;;;;5052470;28;20449;-80
2021/07/14 03:09:38;;;;;;;6.83;5.77;;;15.30;99.90;;;;;;5062824;28;20480;-80
2021/07/14 03:12:08;;;;;;;4.60;4.20;;;15.40;99.90;;;;;;5066704;28;20431;-80
2021/07/14 03:14:39;;;;;;;6.30;4.80;;;15.40;99.90;;;;;;5057665;28;20497;-80
2021/07/14 03:17:07;;;;;;;5.47;5.07;;;15.40;99.90;;;;;;5045425;28;20463;-80
2021/07/14 03:19:36;;;;;;;4.40;4.00;;;15.40;99.90;;;;;;5058050;28;20440;-81
2021/07/14 03:22:05;;;;;;;5.10;4.67;;;15.40;99.90;;;;;;5051988;28;20560;-80
2021/07/14 03:24:33;;;;;;;4.80;4.40;;;15.40;99.90;;;;;;5058842;28;20457;-80
2021/07/14 03:27:02;;;;;;;5.27;4.53;;;15.50;99.90;;;;;;5061522;28;20443;-81
2021/07/14 03:29:31;;;;;;;5.30;4.90;;;15.40;99.90;;;;;;5053438;28;20450;-80
2021/07/14 03:32:00;;;;;;;5.33;4.67;;;15.50;99.90;;;;;;5056958;28;20459;-81
2021/07/14 03:34:28;;;;;;;4.50;4.20;;;15.50;99.30;;;;;;5054729;28;21109;-80
2021/07/14 03:37:04;;;;;;;5.60;5.10;;;15.50;99.40;;;;;;5067461;28;20474;-80
2021/07/14 03:39:32;;;;;;;5.73;5.13;;;15.50;99.70;;;;;;5067137;28;20444;-81
2021/07/14 03:42:00;;;;;;;5.63;4.67;;;15.50;99.90;;;;;;5054849;28;20479;-81
2021/07/14 03:44:29;;;;;;;5.77;5.27;;;15.50;99.90;;;;;;5058716;28;20477;-80
2021/07/14 03:46:57;;;;;;;6.80;6.20;;;15.50;99.90;;;;;;5058382;28;20445;-80
2021/07/14 03:49:25;;;;;;;8.43;5.40;;;15.50;98.80;;;;;;5067829;28;20502;-81
2021/07/14 03:51:55;;;;;;;7.07;6.30;;;15.60;99.90;;;;;;5068675;28;20453;-81
2021/07/14 03:54:24;;;;;;;12.00;7.00;;;15.60;98.50;;;;;;5070215;28;20456;-81
2021/07/14 03:56:51;;;;;;;7.03;6.03;;;15.60;98.50;;;;;;5071438;28;20450;-81
2021/07/14 03:59:18;;;;;;;7.20;6.60;;;15.70;97.90;;;;;;5067414;28;20474;-80
2021/07/14 04:01:45;;;;;;;9.43;6.67;;;15.60;97.10;;;;;;5066235;28;20588;-81
2021/07/14 04:04:13;;;;;;;7.73;6.90;;;15.60;96.90;;;;;;5060059;28;20453;-79
2021/07/14 04:06:42;;;;;;;7.10;6.50;;;15.60;97.20;;;;;;5058326;28;20449;-80
2021/07/14 04:09:23;;;;;;;8.17;7.10;;;15.70;97.30;;;;;;5056271;28;20450;-81
2021/07/14 04:11:53;;;;;;;8.70;6.63;;;15.70;96.60;;;;;;5061311;28;20468;-80
2021/07/14 04:14:21;;;;;;;7.60;7.00;;;15.70;96.90;;;;;;5065407;28;20475;-80
2021/07/14 04:16:48;;;;;;;7.77;7.17;;;15.70;96.80;;;;;;5049691;28;20472;-79
2021/07/14 04:19:19;;;;;;;8.33;7.63;;;15.80;96.10;;;;;;5049220;28;20486;-79
2021/07/14 04:21:46;;;;;;;8.07;7.30;;;15.80;96.50;;;;;;5041208;28;20500;-79
2021/07/14 04:24:13;;;;;;;8.13;7.27;;;15.80;96.30;;;;;;5058349;28;20928;-79
2021/07/14 04:26:42;;;;;;;7.20;6.60;;;15.90;94.50;;;;;;5063231;28;20450;-79
2021/07/14 04:29:10;;;;;;;7.93;7.23;;;15.90;94.60;;;;;;5051627;28;20509;-80
2021/07/14 04:31:38;;;;;;;7.73;7.03;;;15.90;95.20;;;;;;5052400;28;20461;-80
2021/07/14 04:34:07;;;;;;;8.60;7.70;;;16.10;96.10;;;;;;5052131;28;20453;-80
2021/07/14 04:36:35;;;;;;;9.73;7.40;;;16.10;94.90;;;;;;5045704;28;21076;-79
2021/07/14 04:39:04;;;;;;;8.27;7.57;;;16.20;94.40;;;;;;5053057;28;20455;-79
2021/07/14 04:41:31;;;;;;;8.40;7.53;;;16.20;93.20;;;;;;5049802;28;20449;-79
2021/07/14 04:44:01;;;;;;;7.57;6.97;;;16.30;94.60;;;;;;5055943;28;20944;-79
2021/07/14 04:46:28;;;;;;;9.37;8.57;;;16.30;93.90;;;;;;5052843;28;20942;-80
2021/07/14 04:48:55;;;;;;;9.00;8.30;;;16.30;91.30;;;;;;5061505;28;20470;-80
2021/07/14 04:51:23;;;;;;;10.07;9.07;;;16.20;91.50;;;;;;5059998;28;20437;-80
2021/07/14 04:53:50;;;;;;;9.10;8.30;;;16.30;91.30;;;;;;5050358;28;20482;-80
2021/07/14 04:56:17;;;;;;;13.07;8.17;;;16.20;91.60;;;;;;5063076;28;20489;-80
2021/07/14 04:58:45;;;;;;;10.50;8.40;;;16.20;91.30;;;;;;5056796;28;20450;-80
2021/07/14 05:01:14;;;;;;;10.47;9.47;;;16.00;91.90;;;;;;5046374;28;21142;-80
2021/07/14 05:03:44;;;;;;;12.43;8.90;;;15.90;91.50;;;;;;5057800;28;20529;-80
2021/07/14 05:06:13;;;;;;;12.37;9.50;;;15.90;92.40;;;;;;5056662;28;20500;-80
2021/07/14 05:08:40;;;;;;;9.57;8.73;;;15.90;93.50;;;;;;5059088;28;20956;-80
2021/07/14 05:11:07;;;;;;;9.73;8.93;;;16.00;93.50;;;;;;5044807;28;20477;-80
2021/07/14 05:13:34;;;;;;;9.77;8.47;;;16.00;93.60;;;;;;5050189;28;20486;-80
2021/07/14 05:16:01;;;;;;;8.73;8.00;;;16.10;94.70;;;;;;5054051;28;20464;-80
2021/07/14 05:18:33;;;;;;;10.03;9.13;;;16.10;96.30;;;;;;5049093;28;20445;-81
2021/07/14 05:21:00;;;;;;;9.40;8.50;;;16.10;94.00;;;;;;5062885;28;20501;-81
2021/07/14 05:23:27;;;;;;;10.47;8.10;;;16.10;93.50;;;;;;5057443;28;20467;-79
2021/07/14 05:25:54;;;;;;;8.67;7.97;;;16.10;92.60;;;;;;5053654;28;21061;-82
2021/07/14 05:34:14;;;;;;;9.60;8.70;;;16.10;92.80;;;;;;5055706;28;20446;-79
2021/07/14 05:36:41;;;;;;;8.73;8.03;;;16.10;91.80;;;;;;5054948;28;20456;-79
2021/07/14 05:39:08;;;;;;;12.80;8.73;;;16.20;92.20;;;;;;5054583;28;20456;-80
2021/07/14 05:41:36;;;;;;;9.23;8.40;;;16.20;91.60;;;;;;5047976;28;20973;-79
2021/07/14 05:44:03;;;;;;;10.00;9.10;;;16.20;91.00;;;;;;5044231;28;20485;-80
2021/07/14 05:46:31;;;;;;;9.93;8.37;;;16.00;91.10;;;;;;5059128;28;20455;-80
2021/07/14 05:49:02;;;;;;;11.90;9.80;;;16.00;91.40;;;;;;5060227;28;20440;-80
2021/07/14 05:51:32;;;;;;;9.73;8.63;;;16.00;91.40;;;;;;5054643;28;20457;-80
2021/07/14 05:53:59;;;;;;;9.63;8.83;;;16.00;91.40;;;;;;5058274;28;20450;-80
2021/07/14 05:56:26;;;;;;;11.07;9.07;;;16.00;91.50;;;;;;5053181;28;20533;-80
2021/07/14 05:58:54;;;;;;;13.13;8.67;;;16.10;92.50;;;;;;5051929;28;20526;-80
2021/07/14 06:01:21;;;;;;;9.50;8.57;;;16.00;93.00;;;;;;5049020;28;20465;-80
2021/07/14 06:03:50;;;;;;;9.73;8.93;;;16.00;94.20;;;;;;5056037;28;20450;-79
2021/07/14 06:06:18;;;;;;;11.57;9.90;;;16.10;95.50;;;;;;5063690;28;20472;-83
2021/07/14 06:08:47;;;;;;;8.50;7.70;;;16.10;96.20;;;;;;5065968;28;20464;-82
2021/07/14 06:11:14;;;;;;;9.37;8.13;;;16.00;92.00;;;;;;5050829;28;20458;-82
2021/07/14 06:13:41;;;;;;;9.97;8.80;;;15.90;92.70;;;;;;5049423;28;20795;-83
2021/07/14 06:16:09;;;;;;;9.10;8.40;;;15.80;93.50;;;;;;5052917;28;20512;-82
2021/07/14 06:18:36;;;;;;;10.13;9.23;;;15.70;94.20;;;;;;5055814;28;20453;-82
2021/07/14 06:21:05;;;;;;;11.03;9.53;;;15.70;94.50;;;;;;5066155;28;20458;-83
2021/07/14 06:23:32;;;;;;;10.63;9.73;;;15.60;93.90;;;;;;5065020;28;20487;-82
2021/07/14 06:26:01;;;;;;;10.73;9.60;;;15.50;96.50;;;;;;5061356;28;20456;-82
2021/07/14 06:28:31;;;;;;;11.33;10.07;;;15.40;98.60;;;;;;5068327;28;20508;-82
2021/07/14 06:30:58;;;;;;;11.07;9.97;;;15.30;99.90;;;;;;5066286;28;20433;-82
2021/07/14 06:33:27;;;;;;;13.10;11.13;;;15.30;99.90;;;;;;5055052;28;21257;-79
2021/07/14 06:35:55;;;;;;;13.23;12.00;;;15.30;99.90;;;;;;5054620;28;20469;-79
2021/07/14 06:38:23;;;;;;;13.80;12.47;;;15.40;99.90;;;;;;5049443;28;20457;-80
2021/07/14 06:40:50;;;;;;;12.33;11.20;;;15.40;99.90;;;;;;5048233;28;20944;-78
2021/07/14 06:43:19;;;;;;;13.33;11.93;;;15.40;99.90;;;;;;5051794;28;20520;-79
2021/07/14 06:45:48;;;;;;;13.53;12.13;;;15.40;99.90;;;;;;5048370;28;20450;-79
2021/07/14 06:48:15;;;;;;;12.60;11.30;;;15.50;99.90;;;;;;5039365;28;20484;-79
2021/07/14 06:50:42;;;;;;;12.30;11.10;;;15.50;99.90;;;;;;5056147;28;20454;-78
2021/07/14 06:53:12;;;;;;;14.03;12.60;;;15.70;99.90;;;;;;5058880;28;20447;-82
2021/07/14 06:55:39;;;;;;;16.73;10.80;;;15.70;99.90;;;;;;5066300;28;20458;-77
2021/07/14 06:58:06;;;;;;;12.00;10.90;;;15.80;98.80;;;;;;5047571;28;21007;-80
2021/07/14 07:00:35;;;;;;;11.40;10.47;;;15.80;99.10;;;;;;5052200;28;20462;-80
2021/07/14 07:03:03;;;;;;;11.70;10.50;;;15.70;98.60;;;;;;5048751;28;20945;-81
2021/07/14 07:05:30;;;;;;;14.50;13.18;;;15.70;99.80;;;;;;5042988;28;20451;-78
2021/07/14 07:07:57;;;;;;;13.27;11.97;;;15.80;99.90;;;;;;5041135;28;20223;-77
2021/07/14 07:10:24;;;;;;;15.80;11.87;;;15.80;99.90;;;;;;5051351;28;20481;-77
2021/07/14 07:12:53;;;;;;;13.13;11.93;;;15.90;99.90;;;;;;5047658;28;20447;-77
2021/07/14 07:15:21;;;;;;;11.77;10.67;;;16.00;99.50;;;;;;5054488;28;20469;-78
2021/07/14 07:17:49;;;;;;;10.80;9.90;;;16.30;98.70;;;;;;5051442;28;20445;-76
2021/07/14 07:20:17;;;;;;;8.57;7.80;;;16.90;93.10;;;;;;5049998;28;20455;-76
2021/07/14 07:22:45;;;;;;;9.43;8.63;;;17.60;90.70;;;;;;5044259;28;20529;-78
2021/07/14 07:25:13;;;;;;;9.80;8.80;;;17.80;89.10;;;;;;5043903;28;20452;-74
2021/07/14 07:27:41;;;;;;;8.80;8.00;;;18.00;89.70;;;;;;5038813;28;20498;-76
2021/07/14 07:30:11;;;;;;;10.73;8.40;;;18.20;87.40;;;;;;5037189;28;20494;-76
2021/07/14 07:32:38;;;;;;;8.33;7.63;;;18.20;86.60;;;;;;5039940;28;20487;-77
2021/07/14 07:35:08;;;;;;;8.03;7.33;;;18.10;86.60;;;;;;5047344;28;20504;-75
2021/07/14 07:37:35;;;;;;;8.40;7.60;;;18.00;87.50;;;;;;5039036;28;21014;-78
2021/07/14 07:40:02;;;;;;;7.40;6.80;;;18.00;86.50;;;;;;5039139;28;20456;-78
2021/07/14 07:42:29;;;;;;;7.80;7.20;;;18.00;84.70;;;;;;5041117;28;20468;-78
2021/07/14 07:44:55;;;;;;;8.57;7.70;;;18.00;84.90;;;;;;5042729;28;20477;-76
2021/07/14 07:47:23;;;;;;;11.80;7.63;;;18.00;84.80;;;;;;5050170;28;20459;-76
2021/07/14 07:49:49;;;;;;;8.37;7.70;;;18.00;86.00;;;;;;5044965;28;20465;-77
2021/07/14 07:52:19;;;;;;;9.23;8.43;;;17.90;87.60;;;;;;5045013;28;20459;-77
2021/07/14 07:54:46;;;;;;;10.13;9.23;;;17.70;86.60;;;;;;5057245;28;20468;-82
2021/07/14 07:57:14;;;;;;;9.70;8.80;;;17.90;88.00;;;;;;5053586;28;20464;-82
2021/07/14 07:59:41;;;;;;;7.20;6.60;;;18.00;85.70;;;;;;5062152;28;20455;-83
2021/07/14 08:02:08;;;;;;;8.07;7.43;;;18.10;85.90;;;;;;5054335;28;20466;-80
2021/07/14 08:04:35;;;;;;;7.23;6.57;;;18.50;86.60;;;;;;5057234;28;20514;-79
2021/07/14 08:07:02;;;;;;;7.57;7.07;;;18.80;83.80;;;;;;5047459;28;20478;-79
2021/07/14 08:09:32;;;;;;;7.57;6.80;;;19.30;82.70;;;;;;5060774;28;20483;-79
2021/07/14 08:12:01;;;;;;;6.17;5.57;;;19.80;80.50;;;;;;5053127;28;20436;-80
2021/07/14 08:14:28;;;;;;;6.40;5.80;;;20.00;76.90;;;;;;5049959;28;20450;-81
2021/07/14 08:16:56;;;;;;;7.63;5.00;;;20.30;75.70;;;;;;5051102;28;20474;-80
2021/07/14 08:19:23;;;;;;;6.50;6.00;;;20.50;74.50;;;;;;5060144;28;20536;-79
2021/07/14 08:21:50;;;;;;;6.03;5.53;;;20.70;72.40;;;;;;5060331;28;20552;-80
2021/07/14 08:24:17;;;;;;;6.37;5.80;;;20.50;71.60;;;;;;5055188;28;20518;-80
2021/07/14 08:26:59;;;;;;;5.33;4.80;;;20.80;72.10;;;;;;5049070;28;20452;-79
2021/07/14 08:29:28;;;;;;;5.20;4.80;;;20.50;72.30;;;;;;5048562;28;20453;-79
2021/07/14 08:31:55;;;;;;;4.97;4.43;;;20.10;71.80;;;;;;5052394;28;20453;-79
2021/07/14 08:34:25;;;;;;;4.60;3.67;;;20.20;71.80;;;;;;5050522;28;20454;-78
2021/07/14 08:36:52;;;;;;;4.40;4.00;;;20.60;71.20;;;;;;5050324;28;20501;-75
2021/07/14 08:39:19;;;;;;;4.10;3.70;;;20.60;70.00;;;;;;5041257;28;21119;-75
2021/07/14 08:41:50;;;;;;;4.30;4.00;;;20.80;70.10;;;;;;5043674;28;21199;-75
2021/07/14 08:44:18;;;;;;;4.20;3.77;;;20.60;69.20;;;;;;5049872;28;20557;-73
2021/07/14 08:46:45;;;;;;;4.30;3.80;;;20.30;69.90;;;;;;5037156;28;20455;-75
2021/07/14 08:49:14;;;;;;;4.30;3.90;;;20.40;70.50;;;;;;5041104;28;20452;-73
2021/07/14 08:51:43;;;;;;;3.17;2.97;;;20.50;70.50;;;;;;5050872;28;20455;-75
2021/07/14 08:54:10;;;;;;;5.90;3.90;;;20.80;69.70;;;;;;5044722;28;20489;-74
2021/07/14 08:56:38;;;;;;;3.70;3.40;;;20.60;70.10;;;;;;5046352;28;20528;-74
2021/07/14 08:59:07;;;;;;;3.63;3.33;;;20.20;70.10;;;;;;5044213;28;20448;-73
2021/07/14 09:01:34;;;;;;;3.43;3.23;;;20.50;70.80;;;;;;5041034;28;20998;-74
2021/07/14 09:04:03;;;;;;;3.67;3.37;;;20.90;69.80;;;;;;5050105;28;20481;-74
2021/07/14 09:06:30;;;;;;;3.60;3.27;;;20.90;68.50;;;;;;5041981;28;20460;-74
2021/07/14 09:08:57;;;;;;;3.07;2.87;;;20.90;69.30;;;;;;5046033;28;20994;-74
2021/07/14 09:11:24;;;;;;;4.00;3.53;;;20.90;68.10;;;;;;5041792;28;20499;-75
2021/07/14 09:13:51;;;;;;;3.80;3.50;;;21.10;67.90;;;;;;5046088;28;20522;-75
2021/07/14 09:19:15;;;;;;;3.23;2.93;;;21.30;67.70;;;;;;5016030;27;20567;-75
2021/07/14 09:21:43;;;;;;;3.63;2.73;;;21.00;67.20;;;;;;5015273;28;20490;-75
2021/07/14 09:24:26;;;;;;;3.00;2.73;;;20.50;67.60;;;;;;5006835;28;21408;-75
2021/07/14 09:26:54;;;;;;;3.90;2.90;;;20.40;68.00;;;;;;5004118;28;20455;-74
2021/07/14 09:29:21;;;;;;;4.93;3.37;;;20.30;69.10;;;;;;5001813;28;20484;-73
2021/07/14 09:31:48;;;;;;;3.23;3.03;;;20.50;68.20;;;;;;5002799;28;21163;-75
2021/07/14 09:34:28;;;;;;;3.37;3.17;;;20.60;68.50;;;;;;5001191;28;20826;-75
2021/07/14 09:37:02;;;;;;;2.97;2.77;;;20.50;68.50;;;;;;5009504;28;20555;-74
2021/07/14 09:39:34;;;;;;;2.60;2.40;;;20.00;67.60;;;;;;5010384;28;20495;-77
2021/07/14 09:42:03;;;;;;;2.87;2.67;;;19.40;67.60;;;;;;5016489;28;20213;-79
2021/07/14 09:44:30;;;;;;;2.43;2.30;;;19.30;68.70;;;;;;5030297;28;20526;-80
2021/07/14 09:47:18;;;;;;;2.60;2.40;;;19.20;68.60;;;;;;5023199;28;20533;-82
2021/07/14 09:49:47;;;;;;;1.70;1.60;;;19.00;68.10;;;;;;5021478;28;20474;-80
2021/07/14 09:52:16;;;;;;;3.50;3.30;;;19.00;68.10;;;;;;5019874;28;20992;-78
2021/07/14 09:54:43;;;;;;;3.00;2.37;;;19.10;68.60;;;;;;5011328;28;20449;-78
2021/07/14 09:57:12;;;;;;;2.27;2.10;;;19.20;68.50;;;;;;5010353;28;20530;-78
2021/07/14 09:59:39;;;;;;;6.10;2.67;;;19.40;68.20;;;;;;5024446;28;20455;-78
2021/07/14 10:02:08;;;;;;;2.23;2.10;;;19.50;67.80;;;;;;5019846;28;20518;-80
2021/07/14 10:04:36;;;;;;;3.10;2.37;;;19.60;67.80;;;;;;5027480;28;20470;-79
2021/07/14 10:07:14;;;;;;;3.20;2.57;;;19.90;68.00;;;;;;5018970;28;20457;-81
2021/07/14 10:09:43;;;;;;;7.30;3.43;;;19.90;67.80;;;;;;5015072;28;20438;-80
2021/07/14 10:12:31;;;;;;;4.50;2.90;;;20.40;68.20;;;;;;5013261;28;20456;-79
2021/07/14 10:14:59;;;;;;;3.33;3.00;;;20.70;67.20;;;;;;5015021;28;20436;-79
2021/07/14 10:17:39;;;;;;;4.13;3.23;;;20.60;66.80;;;;;;5106119;28;20527;-81
2021/07/14 10:20:29;;;;;;;2.93;2.73;;;20.90;66.50;;;;;;5120186;28;20974;-79
2021/07/14 10:23:02;;;;;;;2.77;2.57;;;20.90;66.10;;;;;;5122294;28;20458;-79
2021/07/14 10:25:30;;;;;;;2.53;2.33;;;20.90;65.80;;;;;;5118319;28;20457;-79
2021/07/14 10:27:58;;;;;;;2.73;2.53;;;20.80;66.50;;;;;;5115752;28;20485;-79
2021/07/14 10:30:27;;;;;;;2.87;2.67;;;21.60;65.50;;;;;;5096640;28;20443;-79
2021/07/14 10:32:56;;;;;;;2.63;2.30;;;21.90;64.20;;;;;;5099919;28;20516;-79
2021/07/14 10:35:25;;;;;;;2.60;2.40;;;22.10;64.20;;;;;;5099670;28;20822;-77
2021/07/14 10:37:55;;;;;;;2.90;2.60;;;22.30;63.40;;;;;;5100057;28;21024;-79
2021/07/14 10:40:24;;;;;;;2.70;2.50;;;22.60;62.70;;;;;;5095694;28;20820;-78
2021/07/14 10:42:53;;;;;;;2.50;2.30;;;22.90;62.70;;;;;;5093611;28;20526;-79
2021/07/14 10:45:20;;;;;;;2.37;2.20;;;23.40;61.70;;;;;;5078877;28;20473;-83
2021/07/14 10:47:49;;;;;;;2.20;2.00;;;23.70;62.10;;;;;;5096118;28;20453;-81
2021/07/14 10:50:18;;;;;;;2.10;2.00;;;23.70;61.80;;;;;;5098090;28;20455;-80
2021/07/14 10:52:47;;;;;;;2.40;2.20;;;23.30;61.80;;;;;;5098528;28;20540;-81
2021/07/14 10:55:26;;;;;;;5.30;2.40;;;23.10;61.60;;;;;;5113998;28;20440;-79
2021/07/14 10:57:55;;;;;;;2.57;2.37;;;22.90;61.80;;;;;;5109237;28;20458;-80
2021/07/14 11:00:25;;;;;;;2.93;2.20;;;22.70;61.70;;;;;;5103146;28;20448;-81
2021/07/14 11:02:55;;;;;;;2.93;2.73;;;22.10;61.20;;;;;;5106740;28;20467;-81
2021/07/14 11:05:45;;;;;;;2.20;2.00;;;21.90;62.20;;;;;;5109440;28;20497;-78
2021/07/14 11:08:39;;;;;;;2.10;1.90;;;22.30;61.60;;;;;;5079695;28;20455;-79
2021/07/14 11:11:07;;;;;;;2.40;2.20;;;22.50;61.10;;;;;;5111424;28;20651;-80
2021/07/14 11:13:37;;;;;;;4.33;2.30;;;22.20;61.50;;;;;;5111261;28;20498;-80
2021/07/14 11:16:24;;;;;;;2.30;2.10;;;21.70;63.10;;;;;;5088410;28;20524;-80
2021/07/14 11:19:02;;;;;;;2.70;2.50;;;22.20;62.40;;;;;;5098513;28;20850;-79
2021/07/14 11:22:03;;;;;;;2.40;2.20;;;22.60;61.90;;;;;;5088172;28;20439;-79
2021/07/14 11:24:54;;;;;;;2.73;2.07;;;22.70;61.20;;;;;;5084537;28;20513;-79
2021/07/14 11:27:50;;;;;;;2.03;1.93;;;22.40;60.50;;;;;;5085952;28;20493;-79
2021/07/14 11:30:50;;;;;;;2.77;1.90;;;22.30;61.00;;;;;;5038801;28;21069;-78
2021/07/14 11:33:24;;;;;;;2.10;1.67;;;22.00;60.10;;;;;;5090636;28;20444;-79
2021/07/14 11:36:03;;;;;;;2.60;2.17;;;22.20;61.40;;;;;;5100846;28;20451;-79
2021/07/14 11:38:32;;;;;;;2.50;2.23;;;22.50;60.80;;;;;;5093678;28;20455;-79
2021/07/14 11:41:02;;;;;;;2.43;2.00;;;22.50;61.30;;;;;;5091218;28;20436;-80
2021/07/14 11:43:42;;;;;;;2.17;2.00;;;22.30;61.10;;;;;;5089030;28;20474;-80
2021/07/14 11:46:15;;;;;;;2.00;1.90;;;22.40;61.00;;;;;;5094441;28;20445;-79
2021/07/14 11:48:50;;;;;;;2.03;1.80;;;22.40;60.10;;;;;;5099583;28;20989;-80
2021/07/14 11:51:23;;;;;;;1.90;1.80;;;22.40;60.90;;;;;;5089965;28;20459;-75
2021/07/14 11:53:51;;;;;;;1.70;1.60;;;22.20;60.60;;;;;;5090692;28;20465;-71
2021/07/14 11:56:21;;;;;;;1.60;1.50;;;22.40;59.90;;;;;;5089924;28;20480;-77
2021/07/14 11:59:02;;;;;;;2.37;1.70;;;22.40;58.90;;;;;;5083990;28;20451;-72
2021/07/14 12:02:05;;;;;;;3.20;1.80;;;22.40;59.60;;;;;;5090992;28;20456;-73
2021/07/14 12:05:01;;;;;;;2.00;1.90;;;22.50;59.50;;;;;;5088399;28;20455;-72
2021/07/14 12:07:40;;;;;;;2.00;1.80;;;22.80;60.30;;;;;;5084613;28;20491;-73
2021/07/14 12:10:17;;;;;;;1.80;1.70;;;23.00;59.50;;;;;;5084236;28;20999;-75
2021/07/14 12:12:47;;;;;;;2.00;1.63;;;23.40;58.80;;;;;;5090845;28;20444;-72
2021/07/14 12:15:14;;;;;;;1.27;1.17;;;23.40;58.30;;;;;;5092992;28;20450;-73
2021/07/14 12:17:41;;;;;;;2.13;2.03;;;23.90;57.80;;;;;;5093972;28;20507;-75
2021/07/14 12:20:09;;;;;;;3.33;1.70;;;24.20;57.90;;;;;;5090693;28;20559;-75
2021/07/14 12:22:37;;;;;;;1.93;1.77;;;24.70;57.70;;;;;;5093438;28;20539;-73
2021/07/14 12:25:10;;;;;;;2.50;1.70;;;25.00;56.70;;;;;;5081854;28;20455;-72
2021/07/14 12:27:39;;;;;;;2.23;1.50;;;25.00;55.80;;;;;;5081922;28;20462;-72
2021/07/14 12:30:08;;;;;;;1.30;1.20;;;24.80;55.90;;;;;;5083885;28;21016;-72
2021/07/14 12:32:40;;;;;;;1.40;1.30;;;24.80;54.80;;;;;;5077015;28;20448;-72
2021/07/14 12:35:13;;;;;;;1.80;1.70;;;24.80;54.90;;;;;;5087945;28;20435;-72
2021/07/14 12:37:47;;;;;;;1.80;1.70;;;24.20;56.30;;;;;;5087059;28;20958;-71
2021/07/14 12:40:25;;;;;;;1.77;1.67;;;23.90;57.00;;;;;;5081488;28;20452;-71
2021/07/14 12:42:53;;;;;;;2.03;1.80;;;23.20;57.50;;;;;;5092392;28;20499;-73
2021/07/14 12:45:28;;;;;;;2.40;1.90;;;22.90;58.30;;;;;;5094675;28;20266;-75
2021/07/14 12:47:56;;;;;;;3.77;2.10;;;23.10;58.40;;;;;;5094235;28;20488;-74
2021/07/14 12:50:24;;;;;;;2.37;1.67;;;23.20;58.20;;;;;;5089664;28;20479;-73
2021/07/14 12:52:54;;;;;;;1.97;1.87;;;22.80;58.50;;;;;;5092620;28;20453;-74
2021/07/14 12:55:22;;;;;;;1.60;1.50;;;22.60;58.60;;;;;;5092229;28;20467;-74
2021/07/14 12:57:49;;;;;;;4.00;2.10;;;22.60;57.80;;;;;;5087342;28;20459;-74
2021/07/14 13:00:18;;;;;;;1.80;1.70;;;22.60;58.50;;;;;;5087930;28;20471;-74
2021/07/14 13:02:47;;;;;;;1.80;1.70;;;22.60;58.40;;;;;;5092161;28;20491;-75
2021/07/14 13:05:17;;;;;;;2.30;2.20;;;22.10;58.90;;;;;;5094223;28;20459;-71
2021/07/14 13:07:46;;;;;;;1.87;1.77;;;22.10;59.20;;;;;;5095288;28;20453;-72
2021/07/14 13:10:17;;;;;;;1.97;1.80;;;22.00;59.50;;;;;;5087458;28;20448;-71
2021/07/14 13:12:45;;;;;;;1.60;1.50;;;21.80;59.70;;;;;;5091669;28;20451;-73
2021/07/14 13:15:16;;;;;;;1.70;1.60;;;21.70;59.60;;;;;;5093433;28;20446;-73
2021/07/14 13:17:43;;;;;;;2.43;1.53;;;21.50;60.40;;;;;;5092400;28;20510;-70